logo
Search for airport 
image banner adimage banner adimage banner ad
image banner ad

YACR - Lotus Creek / Croydon

Located in , Australia

ICAO - , IATA -

Data provided by Airmate  

General information

Coordinates: S22°28'24" E149°9'22"
Elevation is 597 feet MSL.
 
View others Airports in Queensland

Operational data

Special qualification required
Current time UTC:
Current local time:
Weather at : - ( 0 km )
METAR: KRSV 171304Z AUTO 18006KT 10SM CLR 27/22 A3004 RMK AO2 TSNO
View NOTAMs / SUP AIP / TFR affecting this airport [VIEW]
Communications frequencies: [VIEW]

Runways:

Airport contact information

Address: Australia

Satellite view of YACR